Time;durP1;ratioP1;P1;durP2;ratioP2;P2;SDS_P1;SDS_P2;PMS_P1;PMS_P2;Temp;Humidity;BMP_temperature;BMP_pressure;BME280_temperature;BME280_humidity;BME280_pressure;Samples;Min_cycle;Max_cycle;Signal;HPM_P1;HPM_P2
2023/01/07 00:57:05;;;;;;;0.85;0.82;;;;;;;4.68;100.00;93357.31;2507879;23;20066;-84
2023/01/07 02:06:28;;;;;;;1.52;0.77;;;;;;;4.38;100.00;93330.31;2515334;23;20021;-85
2023/01/07 02:07:30;;;;;;;0.70;0.70;;;;;;;4.41;100.00;93319.00;2535218;23;20353;-83
2023/01/07 02:08:35;;;;;;;0.70;0.70;;;;;;;4.45;100.00;93317.13;2521270;23;20355;-85
2023/01/07 02:09:37;;;;;;;0.50;0.50;;;;;;;4.39;100.00;93313.31;2522578;23;20768;-85
2023/01/07 02:10:41;;;;;;;1.00;0.73;;;;;;;4.42;100.00;93323.16;2522356;23;20006;-84
2023/01/07 02:11:58;;;;;;;0.60;0.60;;;;;;;4.47;100.00;93322.78;2522153;23;20030;-85
2023/01/07 02:13:36;;;;;;;3.30;0.90;;;;;;;4.76;100.00;93313.09;2527436;23;20414;-84
2023/01/07 02:15:09;;;;;;;0.88;0.70;;;;;;;4.73;100.00;93311.19;2535267;23;20006;-86
2023/01/07 02:30:58;;;;;;;0.50;0.50;;;;;;;4.30;100.00;93292.47;2624857;22;20015;-83
2023/01/07 02:32:21;;;;;;;0.57;0.57;;;;;;;4.33;100.00;93285.69;2610422;22;20022;-84
2023/01/07 02:33:46;;;;;;;0.70;0.70;;;;;;;4.29;100.00;93285.66;2615722;22;20009;-83
2023/01/07 02:34:56;;;;;;;1.05;0.70;;;;;;;4.29;100.00;93285.66;2610844;22;20014;-83
2023/01/07 02:36:18;;;;;;;0.88;0.55;;;;;;;4.37;100.00;93283.81;2599978;22;20007;-83
2023/01/07 02:37:54;;;;;;;0.43;0.40;;;;;;;4.43;100.00;93285.72;2593742;22;20083;-82
2023/01/07 02:39:19;;;;;;;0.47;0.47;;;;;;;4.42;100.00;93278.16;2599978;22;20089;-83
2023/01/07 02:40:34;;;;;;;0.30;0.30;;;;;;;4.46;100.00;93277.03;2595276;22;20007;-82
2023/01/07 02:42:06;;;;;;;0.60;0.60;;;;;;;4.43;100.00;93274.38;2601284;22;20026;-84
2023/01/07 02:43:19;;;;;;;0.40;0.40;;;;;;;4.40;100.00;93273.25;2598178;22;20426;-83
2023/01/07 02:44:39;;;;;;;0.60;0.60;;;;;;;4.37;100.00;93273.22;2602314;22;20011;-83
2023/01/07 02:45:59;;;;;;;0.40;0.40;;;;;;;4.34;100.00;93272.06;2601403;22;20063;-83
2023/01/07 02:47:08;;;;;;;0.50;0.50;;;;;;;4.34;100.00;93271.31;2593579;22;20000;-83
2023/01/07 02:48:12;;;;;;;2.80;0.68;;;;;;;4.34;100.00;93266.78;2601301;22;20003;-83
2023/01/07 02:49:16;;;;;;;0.60;0.60;;;;;;;4.35;100.00;93273.63;2611381;22;20373;-83
2023/01/07 02:50:17;;;;;;;0.60;0.40;;;;;;;4.38;100.00;93264.16;2610852;22;20113;-82
2023/01/07 02:51:18;;;;;;;0.30;0.30;;;;;;;4.33;100.00;93265.28;2597537;22;20436;-84
2023/01/07 02:52:22;;;;;;;0.35;0.30;;;;;;;4.31;100.00;93264.16;2598019;22;20007;-82
2023/01/07 02:53:23;;;;;;;0.40;0.40;;;;;;;4.32;100.00;93263.00;2586797;22;20007;-83
2023/01/07 02:54:28;;;;;;;0.70;0.52;;;;;;;4.34;100.00;93271.31;2597762;22;20010;-83
2023/01/07 02:55:40;;;;;;;1.13;0.40;;;;;;;4.35;100.00;93263.03;2598853;22;20003;-83
2023/01/07 02:56:58;;;;;;;1.50;0.60;;;;;;;4.34;100.00;93263.38;2600217;22;20331;-83
2023/01/07 02:58:23;;;;;;;1.65;0.60;;;;;;;4.33;100.00;93256.59;2591582;22;20003;-83
2023/01/07 02:59:56;;;;;;;2.45;0.60;;;;;;;4.32;100.00;93263.00;2608083;22;20449;-83
2023/01/07 03:01:32;;;;;;;1.15;0.50;;;;;;;4.29;100.00;93251.28;2610570;22;20011;-83
2023/01/07 03:03:01;;;;;;;0.50;0.50;;;;;;;4.29;100.00;93251.28;2605050;22;20030;-83
2023/01/07 03:04:24;;;;;;;0.40;0.40;;;;;;;4.31;100.00;93242.97;2596939;22;20026;-83
2023/01/07 03:05:40;;;;;;;0.50;0.40;;;;;;;4.31;100.00;93246.38;2602583;22;20094;-84
2023/01/07 03:07:05;;;;;;;0.45;0.40;;;;;;;4.28;100.00;93250.50;2601215;22;20053;-84
2023/01/07 03:08:28;;;;;;;0.45;0.45;;;;;;;4.26;100.00;93252.78;2615970;22;20496;-83
2023/01/07 03:09:38;;;;;;;0.57;0.43;;;;;;;4.17;100.00;93252.38;2602131;22;20007;-83
2023/01/07 03:10:47;;;;;;;0.47;0.40;;;;;;;4.24;100.00;93244.44;2588927;22;20034;-83
2023/01/07 03:11:59;;;;;;;0.40;0.40;;;;;;;4.27;100.00;93242.97;2599774;22;20094;-83
2023/01/07 03:13:05;;;;;;;0.57;0.40;;;;;;;4.29;100.00;93240.69;2589993;22;20409;-83
2023/01/07 03:14:39;;;;;;;0.40;0.40;;;;;;;4.27;100.00;93238.44;2598344;22;20018;-83
2023/01/07 03:16:04;;;;;;;0.65;0.50;;;;;;;4.24;100.00;93238.41;2593698;22;20029;-82
2023/01/07 03:17:10;;;;;;;0.40;0.40;;;;;;;4.26;100.00;93233.50;2615762;22;20390;-83
2023/01/07 03:18:20;;;;;;;0.38;0.30;;;;;;;4.25;100.00;93231.97;2598726;22;20007;-84
2023/01/07 03:19:34;;;;;;;0.50;0.50;;;;;;;4.23;100.00;93228.97;2588567;22;20111;-84
2023/01/07 03:20:38;;;;;;;0.55;0.55;;;;;;;4.19;100.00;93231.59;2604050;22;20014;-84
2023/01/07 03:21:39;;;;;;;0.55;0.50;;;;;;;4.12;100.00;93228.16;2598216;22;20073;-83
2023/01/07 03:22:43;;;;;;;0.43;0.43;;;;;;;4.16;100.00;93216.44;2597664;22;20026;-83
2023/01/07 03:23:51;;;;;;;0.88;0.40;;;;;;;4.19;100.00;93223.66;2611018;22;20165;-84
2023/01/07 03:24:56;;;;;;;0.82;0.50;;;;;;;4.27;100.00;93219.16;2599148;22;20049;-83
2023/01/07 03:26:02;;;;;;;0.70;0.40;;;;;;;4.25;100.00;93218.75;2598487;22;20418;-83
2023/01/07 03:27:05;;;;;;;0.50;0.50;;;;;;;4.24;100.00;93218.00;2587200;22;20008;-84
2023/01/07 03:28:08;;;;;;;0.30;0.30;;;;;;;4.24;100.00;93211.94;2585746;22;20061;-84
2023/01/07 03:29:13;;;;;;;0.55;0.50;;;;;;;4.27;100.00;93213.84;2583370;22;20051;-83
2023/01/07 03:30:16;;;;;;;0.40;0.40;;;;;;;4.27;100.00;93208.56;2583638;22;20344;-83
2023/01/07 03:31:19;;;;;;;0.60;0.60;;;;;;;4.25;100.00;93213.47;2582974;22;20332;-83
2023/01/07 03:32:27;;;;;;;1.35;0.50;;;;;;;4.21;100.00;93210.03;2582778;22;20075;-83
2023/01/07 03:33:52;;;;;;;0.50;0.50;;;;;;;4.21;100.00;93204.75;2596628;22;20113;-84
2023/01/07 03:34:55;;;;;;;0.50;0.40;;;;;;;4.22;100.00;93206.28;2592080;22;19999;-83
2023/01/07 03:35:58;;;;;;;0.40;0.40;;;;;;;4.28;100.00;93205.53;2582864;22;20012;-83
2023/01/07 03:37:03;;;;;;;0.57;0.40;;;;;;;4.27;100.00;93205.91;2608246;22;20018;-83
2023/01/07 03:38:06;;;;;;;0.50;0.40;;;;;;;4.24;100.00;93206.66;2620742;22;20003;-83
2023/01/07 03:39:10;;;;;;;0.70;0.40;;;;;;;4.20;100.00;93197.94;2607497;22;20379;-83
2023/01/07 03:40:11;;;;;;;0.95;0.40;;;;;;;4.21;100.00;93197.56;2583635;22;20012;-84
2023/01/07 03:42:38;;;;;;;0.50;0.50;;;;;;;4.21;100.00;93199.47;2594782;22;20053;-83
2023/01/07 03:42:39;;;;;;;0.50;0.50;;;;;;;4.20;100.00;93205.88;2612001;22;20003;-84
2023/01/07 03:43:40;;;;;;;0.50;0.50;;;;;;;4.20;100.00;93197.94;2596007;22;20056;-83
2023/01/07 03:44:41;;;;;;;0.70;0.50;;;;;;;4.19;100.00;93199.09;2582272;22;20146;-83
2023/01/07 03:45:42;;;;;;;0.60;0.60;;;;;;;4.08;100.00;93204.31;2594239;22;20454;-83
2023/01/07 03:46:43;;;;;;;0.55;0.55;;;;;;;4.09;100.00;93199.81;2607535;22;20515;-83
2023/01/07 03:47:49;;;;;;;2.47;0.50;;;;;;;4.23;100.00;93202.50;2607983;22;20023;-84
2023/01/07 03:48:51;;;;;;;2.22;0.57;;;;;;;4.24;100.00;93199.47;2596117;22;20000;-83
2023/01/07 03:49:51;;;;;;;2.15;0.65;;;;;;;4.25;100.00;93192.28;2582060;22;20070;-83
2023/01/07 03:50:52;;;;;;;0.40;0.40;;;;;;;4.21;100.00;93192.28;2594758;22;20007;-84
2023/01/07 03:51:53;;;;;;;0.68;0.60;;;;;;;4.18;100.00;93187.75;2594704;22;20004;-83
2023/01/07 03:52:54;;;;;;;0.77;0.40;;;;;;;4.10;100.00;93190.75;2607498;22;20062;-83
2023/01/07 03:53:55;;;;;;;0.50;0.50;;;;;;;4.10;100.00;93194.13;2607431;22;20010;-83
2023/01/07 03:54:56;;;;;;;1.45;0.50;;;;;;;4.14;100.00;93188.88;2594920;22;20007;-83
2023/01/07 03:55:57;;;;;;;0.60;0.60;;;;;;;4.16;100.00;93186.59;2582153;22;20084;-84
2023/01/07 03:56:58;;;;;;;0.60;0.60;;;;;;;4.05;100.00;93181.28;2594775;22;20042;-84
2023/01/07 03:57:59;;;;;;;0.68;0.68;;;;;;;4.07;100.00;93186.19;2594892;22;20008;-84
2023/01/07 03:59:00;;;;;;;2.40;0.65;;;;;;;4.03;100.00;93178.22;2581682;22;20063;-84
2023/01/07 04:00:03;;;;;;;0.60;0.60;;;;;;;4.07;100.00;93180.91;2581769;22;20027;-83
2023/01/07 04:01:04;;;;;;;0.63;0.63;;;;;;;4.13;100.00;93179.41;2583235;22;20091;-83
2023/01/07 04:02:05;;;;;;;0.70;0.70;;;;;;;4.12;100.00;93172.59;2581441;22;20043;-84
2023/01/07 04:03:06;;;;;;;0.80;0.70;;;;;;;4.16;100.00;93173.38;2594152;22;20058;-84
2023/01/07 04:04:07;;;;;;;0.88;0.70;;;;;;;4.14;100.00;93167.72;2581117;22;20116;-83
2023/01/07 04:05:09;;;;;;;0.70;0.70;;;;;;;4.18;100.00;93171.13;2580787;22;20470;-84
2023/01/07 04:06:10;;;;;;;0.60;0.60;;;;;;;4.20;100.00;93163.56;2594271;22;20008;-84
2023/01/07 04:07:12;;;;;;;1.40;0.77;;;;;;;4.15;100.00;93164.69;2593949;22;20469;-82
2023/01/07 04:08:13;;;;;;;0.60;0.60;;;;;;;4.18;100.00;93165.84;2594470;22;20408;-84
2023/01/07 04:09:14;;;;;;;0.70;0.70;;;;;;;4.17;100.00;93169.59;2594037;22;20003;-83
2023/01/07 04:10:15;;;;;;;0.90;0.80;;;;;;;4.12;100.00;93164.66;2581751;22;20004;-84
2023/01/07 04:11:16;;;;;;;0.88;0.70;;;;;;;4.15;100.00;93167.31;2581480;22;20142;-85
2023/01/07 04:12:17;;;;;;;1.70;0.80;;;;;;;4.06;100.00;93166.16;2581521;22;20000;-83
2023/01/07 04:13:18;;;;;;;0.95;0.88;;;;;;;4.05;100.00;93162.75;2594502;22;20118;-84
2023/01/07 04:14:19;;;;;;;2.03;0.90;;;;;;;4.10;100.00;93165.03;2594049;22;20101;-84
2023/01/07 04:15:20;;;;;;;1.45;0.90;;;;;;;4.11;100.00;93161.25;2594097;22;20011;-84
2023/01/07 04:16:21;;;;;;;0.70;0.70;;;;;;;4.11;100.00;93157.88;2606800;22;20022;-83
2023/01/07 04:17:22;;;;;;;1.35;0.85;;;;;;;4.11;100.00;93161.25;2606181;22;20003;-84
2023/01/07 04:18:23;;;;;;;2.05;0.90;;;;;;;4.14;100.00;93159.78;2606662;22;20314;-83
2023/01/07 04:19:24;;;;;;;1.00;0.95;;;;;;;4.09;100.00;93162.78;2593792;22;20003;-83
2023/01/07 04:20:25;;;;;;;1.13;1.00;;;;;;;4.09;100.00;93158.25;2594488;22;20368;-84
2023/01/07 04:21:26;;;;;;;1.75;1.20;;;;;;;4.05;100.00;93162.75;2594625;22;20468;-83
2023/01/07 04:22:27;;;;;;;1.10;1.00;;;;;;;4.15;100.00;93154.09;2594566;22;20049;-84
2023/01/07 04:23:28;;;;;;;1.50;1.10;;;;;;;4.17;100.00;93151.84;2593829;22;20014;-84
2023/01/07 04:24:29;;;;;;;0.82;0.82;;;;;;;4.22;100.00;93161.31;2594205;22;20548;-84
2023/01/07 04:25:30;;;;;;;1.10;1.00;;;;;;;4.34;100.00;93157.53;2581799;22;20007;-83
2023/01/07 04:26:32;;;;;;;1.95;0.90;;;;;;;4.28;100.00;93152.63;2594658;22;20061;-84
2023/01/07 04:27:33;;;;;;;3.20;1.08;;;;;;;4.24;100.00;93153.75;2594406;22;20090;-84
2023/01/07 04:28:35;;;;;;;1.40;1.08;;;;;;;4.20;100.00;93152.97;2581381;22;20008;-84
2023/01/07 04:29:36;;;;;;;0.93;0.85;;;;;;;4.15;100.00;93159.38;2581976;22;20158;-83
2023/01/07 04:30:37;;;;;;;0.90;0.82;;;;;;;4.15;100.00;93156.75;2581730;22;20031;-83
2023/01/07 04:31:38;;;;;;;1.88;1.23;;;;;;;4.17;100.00;93153.72;2581763;22;20392;-83
2023/01/07 04:32:39;;;;;;;2.55;2.35;;;;;;;4.16;100.00;93154.84;2581920;22;20705;-83
2023/01/07 04:33:40;;;;;;;3.38;2.30;;;;;;;4.23;100.00;93150.34;2582049;22;20015;-85
2023/01/07 04:34:41;;;;;;;3.15;2.00;;;;;;;4.18;100.00;93152.59;2581990;22;20011;-83
2023/01/07 04:35:45;;;;;;;2.22;1.98;;;;;;;4.18;100.00;93156.00;2581610;22;20004;-83
2023/01/07 04:36:45;;;;;;;3.00;1.70;;;;;;;4.19;100.00;93154.88;2583110;22;20011;-84
2023/01/07 04:37:46;;;;;;;3.50;2.00;;;;;;;4.20;100.00;93158.28;2594515;22;20686;-84
2023/01/07 04:38:48;;;;;;;4.63;4.13;;;;;;;4.15;100.00;93148.06;2594248;22;20004;-85
2023/01/07 04:39:49;;;;;;;4.45;2.80;;;;;;;4.19;100.00;93149.56;2594082;22;20027;-84
2023/01/07 04:40:50;;;;;;;3.67;2.78;;;;;;;4.09;100.00;93149.56;2606796;22;20007;-84
2023/01/07 04:41:51;;;;;;;3.38;2.70;;;;;;;4.10;100.00;93145.78;2581773;22;20099;-84
2023/01/07 04:42:52;;;;;;;4.10;3.20;;;;;;;4.13;100.00;93147.69;2581864;22;20000;-83
2023/01/07 04:43:52;;;;;;;3.85;2.97;;;;;;;4.25;100.00;93142.78;2581768;22;20007;-83
2023/01/07 04:44:53;;;;;;;4.05;2.60;;;;;;;4.34;100.00;93145.06;2582197;22;20514;-84
2023/01/07 04:45:54;;;;;;;4.78;3.58;;;;;;;4.34;100.00;93145.06;2581897;22;20004;-84
2023/01/07 04:46:55;;;;;;;3.50;3.10;;;;;;;4.27;100.00;93140.53;2581580;22;20477;-83
2023/01/07 04:47:57;;;;;;;4.53;3.50;;;;;;;4.24;100.00;93135.22;2582010;22;20008;-84
2023/01/07 04:49:09;;;;;;;4.75;3.55;;;;;;;4.16;100.00;93138.97;2594157;22;20010;-84
2023/01/07 04:50:10;;;;;;;4.93;3.60;;;;;;;4.19;100.00;93133.72;2620308;22;20002;-84
2023/01/07 04:51:11;;;;;;;4.72;3.95;;;;;;;4.14;100.00;93130.69;2607345;22;20081;-84
2023/01/07 04:52:12;;;;;;;7.47;4.18;;;;;;;4.17;100.00;93129.91;2594745;22;19999;-85
2023/01/07 04:53:14;;;;;;;8.05;4.93;;;;;;;4.27;100.00;93132.59;2594124;22;20035;-84
2023/01/07 04:54:15;;;;;;;7.70;5.78;;;;;;;4.28;100.00;93128.06;2581663;22;20411;-83
2023/01/07 04:55:16;;;;;;;6.45;4.82;;;;;;;4.32;100.00;93130.72;2594310;22;20003;-83
2023/01/07 04:56:17;;;;;;;9.40;6.40;;;;;;;4.38;100.00;93124.66;2582252;22;20008;-84
2023/01/07 04:57:18;;;;;;;8.27;5.93;;;;;;;4.35;100.00;93127.31;2582109;22;20008;-84
2023/01/07 04:58:19;;;;;;;8.70;6.20;;;;;;;4.26;100.00;93125.03;2594625;22;20485;-84
2023/01/07 04:59:20;;;;;;;9.70;6.28;;;;;;;4.26;100.00;93123.16;2593679;22;20044;-85
2023/01/07 05:00:21;;;;;;;8.60;6.30;;;;;;;4.33;100.00;93122.41;2581466;22;20011;-84
2023/01/07 05:01:26;;;;;;;12.48;6.50;;;;;;;4.35;100.00;93122.03;2594890;22;20318;-84
2023/01/07 05:02:27;;;;;;;9.00;6.93;;;;;;;4.43;100.00;93118.25;2583477;22;20015;-85
2023/01/07 05:03:29;;;;;;;7.93;5.90;;;;;;;4.30;100.00;93109.91;2581983;22;20613;-84
2023/01/07 05:04:30;;;;;;;5.90;5.18;;;;;;;4.30;100.00;93112.56;2594725;22;20090;-83
2023/01/07 05:05:31;;;;;;;9.05;6.13;;;;;;;4.35;100.00;93114.09;2594186;22;20098;-83
2023/01/07 05:06:32;;;;;;;8.75;6.43;;;;;;;4.37;100.00;93114.47;2607085;22;20056;-83
2023/01/07 05:07:33;;;;;;;7.57;6.05;;;;;;;4.36;100.00;93113.72;2607494;22;19999;-83
2023/01/07 05:08:34;;;;;;;9.35;6.65;;;;;;;4.41;100.00;93118.63;2607160;22;20003;-84
2023/01/07 05:09:35;;;;;;;8.48;6.05;;;;;;;4.35;100.00;93109.56;2581653;22;20000;-84
2023/01/07 05:10:35;;;;;;;7.88;5.80;;;;;;;4.43;100.00;93115.59;2581333;22;20419;-83
2023/01/07 05:11:36;;;;;;;9.82;6.70;;;;;;;4.41;100.00;93104.66;2581450;22;20000;-83
2023/01/07 05:12:37;;;;;;;8.05;6.28;;;;;;;4.44;100.00;93107.31;2594678;22;20011;-84
2023/01/07 05:13:38;;;;;;;7.82;5.93;;;;;;;4.43;100.00;93097.06;2594527;22;20039;-83
2023/01/07 05:14:39;;;;;;;8.73;6.30;;;;;;;4.34;100.00;93101.97;2594555;22;20053;-83
2023/01/07 05:15:40;;;;;;;8.68;6.22;;;;;;;4.34;100.00;93110.66;2581740;22;20004;-83
2023/01/07 05:16:41;;;;;;;9.43;6.22;;;;;;;4.34;100.00;93108.03;2594656;22;20073;-83
2023/01/07 05:17:42;;;;;;;10.27;6.65;;;;;;;4.29;100.00;93108.41;2594011;22;20049;-83
2023/01/07 05:18:43;;;;;;;8.75;6.07;;;;;;;4.26;100.00;93103.88;2606982;22;20082;-83
2023/01/07 05:19:44;;;;;;;7.97;5.78;;;;;;;4.33;100.00;93108.41;2594386;22;20008;-83
2023/01/07 05:20:48;;;;;;;7.85;5.85;;;;;;;4.24;100.00;93104.22;2581806;22;20019;-82
2023/01/07 05:21:50;;;;;;;10.95;6.32;;;;;;;4.32;100.00;93104.25;2583393;22;20108;-84
2023/01/07 05:22:51;;;;;;;6.60;5.03;;;;;;;4.46;100.00;93105.03;2607123;22;20014;-82
2023/01/07 05:23:52;;;;;;;7.88;5.35;;;;;;;4.32;100.00;93105.00;2606757;22;20453;-83
2023/01/07 05:24:53;;;;;;;7.82;4.97;;;;;;;4.48;100.00;93097.47;2581981;22;20022;-83
2023/01/07 05:25:54;;;;;;;7.15;5.80;;;;;;;4.53;100.00;93101.63;2581812;22;20000;-83
2023/01/07 05:26:55;;;;;;;7.40;5.72;;;;;;;4.41;100.00;93105.41;2581626;22;20008;-84
2023/01/07 05:27:56;;;;;;;7.75;4.90;;;;;;;4.30;100.00;93104.63;2594499;22;20010;-83
2023/01/07 05:28:57;;;;;;;8.68;4.95;;;;;;;4.38;100.00;93105.38;2620058;22;20006;-84
2023/01/07 05:29:58;;;;;;;6.45;5.07;;;;;;;4.36;100.00;93110.31;2606340;22;20446;-83
2023/01/07 05:31:00;;;;;;;7.20;5.70;;;;;;;4.32;100.00;93101.59;2581539;22;20099;-83
2023/01/07 05:32:00;;;;;;;8.27;5.25;;;;;;;4.28;100.00;93106.88;2594738;22;20072;-84
2023/01/07 05:33:01;;;;;;;6.30;5.47;;;;;;;4.21;100.00;93106.88;2594417;22;20034;-81
2023/01/07 05:34:02;;;;;;;7.75;4.95;;;;;;;4.21;100.00;93099.69;2594496;22;20372;-83
2023/01/07 05:35:04;;;;;;;6.28;5.10;;;;;;;4.17;100.00;93100.81;2594413;22;20039;-84
2023/01/07 05:36:05;;;;;;;7.93;5.25;;;;;;;4.16;100.00;93094.75;2581506;22;20004;-84
2023/01/07 05:37:06;;;;;;;7.18;5.10;;;;;;;4.19;100.00;93090.63;2594186;22;20007;-84
2023/01/07 05:38:07;;;;;;;7.50;5.30;;;;;;;4.14;100.00;93097.03;2594312;22;20657;-83
2023/01/07 05:39:08;;;;;;;5.75;4.80;;;;;;;4.15;100.00;93095.91;2594248;22;20007;-84
2023/01/07 05:40:10;;;;;;;6.20;4.50;;;;;;;4.19;100.00;93088.72;2594427;22;20283;-84
2023/01/07 05:41:12;;;;;;;6.95;5.18;;;;;;;4.44;100.00;93090.66;2594143;22;20866;-84
2023/01/07 05:42:13;;;;;;;5.70;4.70;;;;;;;4.40;100.00;93092.56;2607136;22;20013;-83
2023/01/07 05:43:14;;;;;;;6.22;4.90;;;;;;;4.56;100.00;93084.97;2620167;22;19998;-83
2023/01/07 05:44:15;;;;;;;6.35;4.82;;;;;;;4.36;100.00;93089.91;2607091;22;20497;-83
2023/01/07 05:45:16;;;;;;;5.43;4.63;;;;;;;4.23;100.00;93088.75;2594350;22;20008;-83
2023/01/07 05:46:17;;;;;;;6.50;4.72;;;;;;;4.21;100.00;93094.41;2581691;22;20000;-84
2023/01/07 05:47:18;;;;;;;5.45;4.53;;;;;;;4.24;100.00;93092.91;2594389;22;20096;-84
2023/01/07 05:48:19;;;;;;;4.88;4.25;;;;;;;4.34;100.00;93089.50;2593941;22;20061;-83
2023/01/07 05:49:20;;;;;;;5.35;4.45;;;;;;;4.35;100.00;93093.69;2581445;22;20427;-82
2023/01/07 05:50:21;;;;;;;6.25;4.85;;;;;;;4.36;100.00;93083.84;2594455;22;20054;-84
2023/01/07 05:51:22;;;;;;;7.15;5.00;;;;;;;4.27;100.00;93087.63;2606901;22;20003;-83
2023/01/07 05:52:23;;;;;;;6.22;4.20;;;;;;;4.29;100.00;93087.22;2594459;22;20003;-83
2023/01/07 05:53:24;;;;;;;6.00;4.75;;;;;;;4.27;100.00;93089.50;2594455;22;20000;-83
2023/01/07 05:54:25;;;;;;;6.18;4.93;;;;;;;4.25;100.00;93092.50;2593708;22;20030;-84
2023/01/07 05:55:26;;;;;;;4.97;4.47;;;;;;;4.35;100.00;93088.38;2594274;22;20296;-85
2023/01/07 05:56:27;;;;;;;4.88;4.35;;;;;;;4.35;100.00;93087.63;2594473;22;20524;-83
2023/01/07 05:57:28;;;;;;;4.65;4.05;;;;;;;4.41;100.00;93084.22;2581508;22;20008;-83
2023/01/07 05:58:29;;;;;;;4.20;3.78;;;;;;;4.29;100.00;93087.22;2594368;22;20481;-83
2023/01/07 05:59:32;;;;;;;4.30;3.55;;;;;;;4.26;100.00;93082.72;2619832;22;20002;-83
2023/01/07 06:00:35;;;;;;;5.13;4.03;;;;;;;4.25;100.00;93081.19;2594457;22;20008;-83
2023/01/07 06:01:38;;;;;;;5.15;4.13;;;;;;;4.29;100.00;93079.28;2607765;22;20322;-83
2023/01/07 06:02:39;;;;;;;4.32;3.42;;;;;;;4.21;100.00;93080.41;2607036;22;20011;-83
2023/01/07 06:03:40;;;;;;;5.20;3.83;;;;;;;4.17;100.00;93084.94;2581474;22;20503;-83
2023/01/07 06:04:41;;;;;;;5.50;3.92;;;;;;;4.16;100.00;93078.91;2581512;22;20050;-83
2023/01/07 06:05:42;;;;;;;7.10;4.63;;;;;;;4.12;100.00;93080.78;2594513;22;20042;-83
2023/01/07 06:06:43;;;;;;;5.72;3.95;;;;;;;4.12;100.00;93091.34;2581400;22;20011;-83
2023/01/07 06:07:44;;;;;;;4.13;3.47;;;;;;;4.22;100.00;93082.69;2594124;22;20058;-84
2023/01/07 06:08:45;;;;;;;6.25;3.75;;;;;;;4.19;100.00;93082.69;2581827;22;20020;-83
2023/01/07 06:09:46;;;;;;;4.10;3.65;;;;;;;4.16;100.00;93084.19;2594223;22;20053;-83
2023/01/07 06:10:47;;;;;;;4.55;3.70;;;;;;;4.15;100.00;93087.97;2594440;22;20024;-83
2023/01/07 06:11:48;;;;;;;5.70;3.70;;;;;;;4.18;100.00;93081.94;2594513;22;20057;-83
2023/01/07 06:12:50;;;;;;;4.50;3.72;;;;;;;4.29;100.00;93084.59;2581632;22;20391;-84
2023/01/07 06:13:51;;;;;;;5.43;4.38;;;;;;;4.23;100.00;93084.22;2594198;22;19995;-83
2023/01/07 06:14:52;;;;;;;5.78;4.20;;;;;;;4.18;100.00;93081.94;2594228;22;20022;-85
2023/01/07 06:15:58;;;;;;;4.97;3.80;;;;;;;4.09;100.00;93084.19;2581858;22;20027;-84
2023/01/07 06:16:59;;;;;;;4.38;3.97;;;;;;;4.10;100.00;93077.00;2584005;22;20035;-84
2023/01/07 06:17:59;;;;;;;5.07;4.07;;;;;;;4.11;100.00;93081.16;2581530;22;20138;-83
2023/01/07 06:19:01;;;;;;;6.13;4.50;;;;;;;4.22;100.00;93079.31;2594160;22;20447;-83
2023/01/07 06:20:03;;;;;;;5.72;4.35;;;;;;;4.17;100.00;93077.00;2593994;22;20042;-84
2023/01/07 06:21:04;;;;;;;4.53;3.85;;;;;;;4.24;100.00;93079.66;2594308;22;20734;-84
2023/01/07 06:22:05;;;;;;;4.82;4.10;;;;;;;4.19;100.00;93080.03;2607242;22;20418;-83
2023/01/07 06:23:06;;;;;;;5.10;4.10;;;;;;;4.29;100.00;93076.66;2619904;22;20323;-82
2023/01/07 06:24:07;;;;;;;6.63;4.70;;;;;;;4.37;100.00;93077.41;2594009;22;20062;-83
2023/01/07 06:25:10;;;;;;;4.63;4.10;;;;;;;4.29;100.00;93082.69;2594178;22;20011;-84
2023/01/07 06:26:11;;;;;;;5.25;3.67;;;;;;;4.17;100.00;93080.44;2594320;22;20003;-83
2023/01/07 06:27:12;;;;;;;4.22;3.70;;;;;;;4.13;100.00;93082.31;2593937;22;20100;-83
2023/01/07 06:28:13;;;;;;;5.65;3.97;;;;;;;4.16;100.00;93088.72;2594009;22;20003;-83
2023/01/07 06:29:14;;;;;;;5.38;4.55;;;;;;;4.08;100.00;93076.59;2594229;22;20000;-83
2023/01/07 06:30:15;;;;;;;4.43;3.80;;;;;;;4.18;100.00;93081.19;2581428;22;20455;-83
2023/01/07 06:31:16;;;;;;;4.43;3.30;;;;;;;4.12;100.00;93085.31;2581207;22;20008;-83
2023/01/07 06:32:17;;;;;;;4.60;3.70;;;;;;;4.12;100.00;93074.72;2581488;22;20007;-83
2023/01/07 06:33:19;;;;;;;3.60;3.00;;;;;;;4.30;100.00;93083.44;2594350;22;20026;-84
2023/01/07 06:34:20;;;;;;;4.45;3.03;;;;;;;4.15;100.00;93082.69;2606931;22;20007;-82
2023/01/07 06:35:21;;;;;;;3.65;3.17;;;;;;;4.18;100.00;93083.81;2594696;22;19999;-84
2023/01/07 06:36:22;;;;;;;3.60;3.28;;;;;;;4.22;100.00;93084.59;2594358;22;20004;-84
2023/01/07 06:37:25;;;;;;;3.88;3.33;;;;;;;4.13;100.00;93078.91;2593879;22;20031;-84
2023/01/07 06:38:26;;;;;;;3.70;3.13;;;;;;;4.25;100.00;93075.88;2582461;22;20411;-85
2023/01/07 06:39:27;;;;;;;7.13;3.65;;;;;;;4.36;100.00;93067.97;2594356;22;20007;-83
2023/01/07 06:40:28;;;;;;;3.28;2.92;;;;;;;4.51;100.00;93070.22;2594010;22;20369;-84
2023/01/07 06:41:29;;;;;;;3.05;2.75;;;;;;;4.37;100.00;93070.22;2594292;22;20370;-83
2023/01/07 06:42:30;;;;;;;3.10;2.88;;;;;;;4.28;100.00;93078.53;2594162;22;20399;-84
2023/01/07 06:43:31;;;;;;;3.75;3.00;;;;;;;4.18;100.00;93079.28;2593954;22;20030;-84
2023/01/07 06:44:32;;;;;;;3.33;3.03;;;;;;;4.16;100.00;93078.13;2594057;22;20054;-84
2023/01/07 06:45:33;;;;;;;3.70;2.65;;;;;;;4.10;100.00;93077.00;2606994;22;20003;-83
2023/01/07 06:46:34;;;;;;;4.10;2.67;;;;;;;4.17;100.00;93082.28;2606709;22;20074;-84
2023/01/07 06:47:35;;;;;;;5.68;3.35;;;;;;;4.45;100.00;93073.66;2606984;22;20414;-85
2023/01/07 06:48:36;;;;;;;5.13;2.70;;;;;;;4.57;100.00;93065.34;2606382;22;20019;-84
2023/01/07 06:49:37;;;;;;;3.88;3.10;;;;;;;4.52;100.00;93073.63;2594102;22;20007;-85
2023/01/07 06:50:38;;;;;;;3.25;2.80;;;;;;;4.37;100.00;93070.22;2581458;22;20124;-84
2023/01/07 06:51:39;;;;;;;4.00;2.90;;;;;;;4.22;100.00;93063.44;2594304;22;20004;-84
2023/01/07 06:52:40;;;;;;;4.85;2.90;;;;;;;4.40;100.00;93069.50;2594243;22;20451;-85
2023/01/07 06:53:41;;;;;;;4.38;3.05;;;;;;;4.31;100.00;93061.16;2581837;22;20011;-84
2023/01/07 06:54:42;;;;;;;3.63;2.88;;;;;;;4.24;100.00;93064.56;2606863;22;20338;-83
2023/01/07 06:55:50;;;;;;;3.38;3.08;;;;;;;4.19;100.00;93061.53;2593675;22;20071;-83
2023/01/07 06:56:51;;;;;;;2.97;2.67;;;;;;;4.15;100.00;93076.63;2595439;22;20000;-84
2023/01/07 06:57:52;;;;;;;4.13;3.30;;;;;;;4.09;100.00;93064.91;2594384;22;20359;-84
2023/01/07 06:58:53;;;;;;;3.78;3.20;;;;;;;4.02;100.00;93066.41;2606984;22;20027;-84
2023/01/07 06:59:54;;;;;;;4.60;3.30;;;;;;;3.99;100.00;93056.56;2594185;22;20434;-83
2023/01/07 07:00:55;;;;;;;3.17;2.85;;;;;;;3.92;100.00;93067.16;2581526;22;20016;-83
2023/01/07 07:01:56;;;;;;;3.25;2.95;;;;;;;3.90;100.00;93064.09;2581231;22;20324;-83
2023/01/07 07:02:57;;;;;;;3.70;3.00;;;;;;;3.92;100.00;93059.22;2593997;22;20007;-83
2023/01/07 07:03:58;;;;;;;4.13;3.28;;;;;;;4.09;100.00;93062.28;2593850;22;20043;-84
2023/01/07 07:04:59;;;;;;;3.95;3.10;;;;;;;4.02;100.00;93060.34;2594664;22;20669;-83
2023/01/07 07:06:03;;;;;;;4.00;3.33;;;;;;;4.13;100.00;93060.41;2583407;22;20096;-84
2023/01/07 07:07:04;;;;;;;3.00;2.70;;;;;;;4.06;100.00;93060.38;2607513;22;20365;-83
2023/01/07 07:08:05;;;;;;;4.75;3.22;;;;;;;3.99;100.00;93058.47;2607646;22;20004;-84
2023/01/07 07:09:06;;;;;;;3.80;3.40;;;;;;;3.91;100.00;93059.59;2595023;22;20034;-85
2023/01/07 07:10:08;;;;;;;4.07;3.33;;;;;;;3.92;100.00;93055.81;2594919;22;20011;-84
2023/01/07 07:11:09;;;;;;;4.28;3.65;;;;;;;3.91;100.00;93052.41;2595440;22;20011;-84
2023/01/07 07:12:10;;;;;;;3.50;3.20;;;;;;;3.88;100.00;93062.97;2594817;22;20034;-83
2023/01/07 07:13:11;;;;;;;3.72;3.35;;;;;;;3.90;100.00;93058.06;2594650;22;20008;-84
2023/01/07 07:14:12;;;;;;;3.88;3.10;;;;;;;3.90;100.00;93058.81;2594953;22;20003;-84
2023/01/07 07:15:13;;;;;;;2.85;2.55;;;;;;;3.92;100.00;93053.94;2594930;22;20007;-84
2023/01/07 07:16:14;;;;;;;4.22;3.50;;;;;;;3.88;100.00;93055.81;2607938;22;20007;-83
2023/01/07 07:17:15;;;;;;;3.58;3.10;;;;;;;3.84;100.00;93052.38;2607535;22;20004;-83
2023/01/07 07:18:17;;;;;;;4.00;3.42;;;;;;;3.83;100.00;93060.72;2594969;22;20750;-84
2023/01/07 07:19:21;;;;;;;3.33;3.03;;;;;;;3.83;100.00;93060.72;2577666;22;20004;-83
2023/01/07 07:20:25;;;;;;;4.53;3.13;;;;;;;3.82;100.00;93052.03;2579240;22;20524;-83
2023/01/07 07:21:26;;;;;;;3.67;3.30;;;;;;;3.88;100.00;93055.06;2580945;22;20495;-82